»·PEaware :: AAL1982 KLAS-KMSO

AAL1982 :: KLAS-KMSO

FLIGHT INFORMATION

Flight Status: Arrived
Operator:
American Airlines
More flights by this operator :: More flights under this callsign
Pilot: Justin S. (9599)
Aircraft: BOEING 727-100
(B721)
More flights by this aircraft type
Origin: KLAS McCarran Intl
United States
Destination: KMSO Missoula Intl
United States
More flights between these airports :: More routes between these airports
Route: LAS5 PGA MLF J9 DBS J52 LKT V231 MSO
File this flight plan on PilotEdge
Remarks:
Altitude:
(Current/Filed)
32,000ft
Speed:
(Current/Filed)
500kts
Departed: 10-Jan-21 10:55 AM
Arrived: 10-Jan-21 12:57 PM
Distance/Time
Traveled:
652nm/2:02
Distance/Time
To Go:
Arrived

Flight Plot

Page will automatically refresh every two minutes.

Flight plan parsing failed; only flown route is shown


Map Options




Map Legend


Flown Route
Filed Route
Departure Airport
Arrival Airport
Navaid (VOR, NDB)
Fix

Horizontal Profiles

Position Reports

Time Latitude Longitude Heading Altitude Ground
Speed
10-Jan-21 10:25 36.080200 -115.136111 66 2190ft 0kts
10-Jan-21 10:26 36.080200 -115.136111 66 2190ft 0kts
10-Jan-21 10:27 36.080200 -115.136111 66 2190ft 0kts
10-Jan-21 10:28 36.080200 -115.136111 66 2190ft 0kts
10-Jan-21 10:29 36.080200 -115.136111 66 2190ft 0kts
10-Jan-21 10:30 36.080200 -115.136111 66 2190ft 0kts
10-Jan-21 10:31 36.080200 -115.136111 66 2190ft 0kts
10-Jan-21 10:32 36.080200 -115.136111 66 2190ft 0kts
10-Jan-21 10:33 36.080201 -115.136111 66 2190ft 0kts
10-Jan-21 10:34 36.080201 -115.136111 66 2190ft 0kts
10-Jan-21 10:35 36.080194 -115.136130 67 2190ft 1kts
10-Jan-21 10:36 36.079945 -115.136839 66 2190ft 2kts
10-Jan-21 10:37 36.080013 -115.137225 135 2190ft 0kts
10-Jan-21 10:38 36.080013 -115.137224 135 2190ft 0kts
10-Jan-21 10:39 36.080012 -115.137224 135 2190ft 0kts
10-Jan-21 10:40 36.080013 -115.137224 135 2190ft 0kts
10-Jan-21 10:41 36.080013 -115.137224 135 2190ft 0kts
10-Jan-21 10:42 36.080013 -115.137224 135 2190ft 0kts
10-Jan-21 10:43 36.079850 -115.137025 135 2190ft 7kts
10-Jan-21 10:45 36.079039 -115.136015 134 2190ft 4kts
10-Jan-21 10:46 36.078307 -115.132568 90 2190ft 12kts
10-Jan-21 10:47 36.078296 -115.127582 89 2190ft 15kts
10-Jan-21 10:48 36.078040 -115.122254 128 2190ft 12kts
10-Jan-21 10:49 36.077600 -115.121559 128 2190ft 6kts
10-Jan-21 10:50 36.077516 -115.121446 138 2190ft 0kts
10-Jan-21 10:51 36.077516 -115.121446 138 2190ft 0kts
10-Jan-21 10:52 36.077516 -115.121446 138 2190ft 0kts
10-Jan-21 10:53 36.077516 -115.121446 138 2190ft 0kts
10-Jan-21 10:54 36.077476 -115.121404 140 2190ft 3kts
10-Jan-21 10:55 36.076413 -115.135659 269 2201ft 149kts
10-Jan-21 10:56 36.074999 -115.191138 268 4706ft 170kts
10-Jan-21 10:57 36.056795 -115.254298 208 7118ft 238kts
10-Jan-21 10:58 36.000468 -115.232895 111 10490ft 266kts
10-Jan-21 10:58 35.993947 -115.149192 75 12697ft 289kts
10-Jan-21 10:59 36.030578 -115.046381 52 15361ft 321kts
10-Jan-21 11:00 36.081072 -114.946186 52 18573ft 328kts
10-Jan-21 11:02 36.124138 -114.812093 77 20779ft 376kts
10-Jan-21 11:03 36.141868 -114.668534 76 22843ft 398kts
10-Jan-21 11:03 36.158138 -114.538914 77 24009ft 433kts
10-Jan-21 11:04 36.177545 -114.379810 77 26405ft 437kts
10-Jan-21 11:05 36.196938 -114.218152 77 28016ft 451kts
10-Jan-21 11:06 36.216585 -114.051718 77 29306ft 459kts
10-Jan-21 11:07 36.236284 -113.883254 77 30386ft 467kts
10-Jan-21 11:08 36.256103 -113.712303 77 31178ft 474kts
10-Jan-21 11:09 36.285037 -113.541582 55 31794ft 465kts
10-Jan-21 11:10 36.357858 -113.395750 51 32351ft 470kts
10-Jan-21 11:11 36.434337 -113.247136 52 32378ft 493kts
10-Jan-21 11:12 36.514027 -113.093620 51 32373ft 516kts
10-Jan-21 11:13 36.594189 -112.935390 57 32369ft 534kts
10-Jan-21 11:14 36.649847 -112.751230 67 32368ft 533kts
10-Jan-21 11:15 36.692505 -112.562646 70 32393ft 529kts
10-Jan-21 11:16 36.726969 -112.378023 71 32401ft 526kts
10-Jan-21 11:17 36.762778 -112.198292 69 32399ft 521kts
10-Jan-21 11:18 36.805343 -112.016498 67 32400ft 518kts
10-Jan-21 11:19 36.889315 -111.873196 17 32368ft 466kts
10-Jan-21 11:20 37.022136 -111.870974 348 32378ft 445kts
10-Jan-21 11:21 37.149986 -111.859521 30 32376ft 468kts
10-Jan-21 11:22 37.272044 -111.837643 335 32310ft 437kts
10-Jan-21 11:23 37.386032 -111.920134 330 32321ft 448kts
10-Jan-21 11:24 37.506757 -111.990284 336 32317ft 463kts
10-Jan-21 11:25 37.628639 -112.070939 325 32318ft 472kts
10-Jan-21 11:26 37.729044 -112.194076 309 32316ft 475kts
10-Jan-21 11:27 37.806789 -112.337738 306 32323ft 472kts
10-Jan-21 11:28 37.897320 -112.475935 317 32347ft 469kts
10-Jan-21 11:29 38.006030 -112.588479 323 32345ft 468kts
10-Jan-21 11:30 38.108909 -112.699377 316 32379ft 469kts
10-Jan-21 11:31 38.207859 -112.825089 315 32375ft 471kts
10-Jan-21 11:32 38.337006 -112.882808 354 32372ft 474kts
10-Jan-21 11:33 38.479953 -112.891903 355 32371ft 477kts
10-Jan-21 11:34 38.620847 -112.877712 20 32369ft 486kts
10-Jan-21 11:35 38.750908 -112.800511 21 32371ft 488kts
10-Jan-21 11:36 38.884138 -112.725599 20 32371ft 489kts
10-Jan-21 11:37 39.018200 -112.652389 20 32369ft 490kts
10-Jan-21 11:38 39.149343 -112.581111 19 32374ft 490kts
10-Jan-21 11:39 39.283951 -112.507580 20 32370ft 491kts
10-Jan-21 11:40 39.419066 -112.432331 20 32374ft 491kts
10-Jan-21 11:41 39.553750 -112.356185 20 32371ft 490kts
10-Jan-21 11:42 39.685994 -112.282850 20 32437ft 488kts
10-Jan-21 11:43 39.819854 -112.205887 22 32428ft 489kts
10-Jan-21 11:44 39.953127 -112.124865 21 32420ft 497kts
10-Jan-21 11:45 40.088241 -112.049388 23 32426ft 510kts
10-Jan-21 11:46 40.223701 -111.982359 9 32428ft 515kts
10-Jan-21 11:47 40.368999 -111.951006 13 32424ft 523kts
10-Jan-21 11:48 40.514397 -111.961207 355 32400ft 520kts
10-Jan-21 11:49 40.661960 -111.967844 355 32429ft 526kts
10-Jan-21 11:50 40.817284 -111.976603 355 32427ft 530kts
10-Jan-21 11:51 40.972163 -111.987097 355 32423ft 532kts
10-Jan-21 11:52 41.122831 -111.998429 355 32426ft 533kts
10-Jan-21 11:53 41.281809 -112.010314 355 32423ft 532kts
10-Jan-21 11:54 41.441290 -112.021911 355 32428ft 532kts
10-Jan-21 11:55 41.599598 -112.033118 355 32429ft 531kts
10-Jan-21 11:56 41.758740 -112.044187 355 32454ft 530kts
10-Jan-21 11:57 41.917804 -112.055570 355 32459ft 529kts
10-Jan-21 11:58 42.074144 -112.068029 355 32458ft 528kts
10-Jan-21 11:59 42.225445 -112.079846 355 32453ft 528kts
10-Jan-21 12:00 42.382910 -112.091408 355 32455ft 527kts
10-Jan-21 12:01 42.536576 -112.102292 356 32388ft 502kts
10-Jan-21 12:02 42.684938 -112.116178 356 32397ft 487kts
10-Jan-21 12:03 42.826578 -112.126345 357 32398ft 478kts
10-Jan-21 12:04 42.967478 -112.133889 358 32397ft 472kts
10-Jan-21 12:05 43.100973 -112.140222 358 32431ft 467kts
10-Jan-21 12:06 43.235800 -112.147487 357 32429ft 465kts
10-Jan-21 12:07 43.371982 -112.156990 357 32429ft 462kts
10-Jan-21 12:08 43.509091 -112.169133 356 32427ft 461kts
10-Jan-21 12:09 43.647189 -112.183307 356 32426ft 459kts
10-Jan-21 12:10 43.783407 -112.197822 356 32427ft 460kts
10-Jan-21 12:11 43.917192 -112.211096 356 32395ft 462kts
10-Jan-21 12:12 44.050650 -112.255818 338 32397ft 463kts
10-Jan-21 12:13 44.167261 -112.336732 315 32400ft 466kts
10-Jan-21 12:14 44.234018 -112.507888 307 32402ft 469kts
10-Jan-21 12:15 44.315549 -112.661856 306 32401ft 480kts
10-Jan-21 12:16 44.398709 -112.827250 305 32389ft 490kts
10-Jan-21 12:17 44.482195 -112.997645 304 32286ft 499kts
10-Jan-21 12:18 44.563950 -113.166785 304 32479ft 501kts
10-Jan-21 12:19 44.647328 -113.340262 304 32457ft 507kts
10-Jan-21 12:21 44.731334 -113.515326 304 32457ft 510kts
10-Jan-21 12:22 44.812166 -113.684110 303 32452ft 494kts
10-Jan-21 12:23 44.887832 -113.843054 302 31817ft 431kts
10-Jan-21 12:24 44.970175 -113.971575 333 29390ft 420kts
10-Jan-21 12:25 45.086688 -114.031226 340 27208ft 405kts
10-Jan-21 12:26 45.192816 -114.081471 340 25220ft 392kts
10-Jan-21 12:27 45.305822 -114.081319 11 22932ft 384kts
10-Jan-21 12:28 45.421257 -114.078642 355 20532ft 376kts
10-Jan-21 12:29 45.532727 -114.086407 356 18570ft 361kts
10-Jan-21 12:30 45.640032 -114.089470 358 17182ft 350kts
10-Jan-21 12:31 45.744947 -114.088234 359 16637ft 345kts
10-Jan-21 12:32 45.846160 -114.085483 359 15805ft 337kts
10-Jan-21 12:33 45.945527 -114.083535 358 15093ft 325kts
10-Jan-21 12:34 46.042534 -114.082930 358 15014ft 313kts
10-Jan-21 12:34 46.114134 -114.083168 357 14984ft 297kts
10-Jan-21 12:36 46.216625 -114.084261 357 14993ft 301kts
10-Jan-21 12:37 46.310050 -114.085593 357 14989ft 316kts
10-Jan-21 12:37 46.389631 -114.086277 357 14723ft 315kts
10-Jan-21 12:38 46.482662 -114.086285 358 13235ft 308kts
10-Jan-21 12:39 46.572498 -114.084918 358 12024ft 283kts
10-Jan-21 12:40 46.651816 -114.082747 358 11992ft 276kts
10-Jan-21 12:41 46.741491 -114.081853 357 11993ft 310kts
10-Jan-21 12:42 46.831016 -114.082848 346 11972ft 273kts
10-Jan-21 12:43 46.885012 -114.146556 313 11171ft 228kts
10-Jan-21 12:44 46.933589 -114.217798 313 10054ft 219kts
10-Jan-21 12:45 46.979453 -114.284232 313 10009ft 245kts
10-Jan-21 12:46 47.040190 -114.283480 73 9972ft 236kts
10-Jan-21 12:47 47.008130 -114.210552 149 9634ft 198kts
10-Jan-21 12:48 46.959188 -114.163800 137 6587ft 212kts
10-Jan-21 12:49 46.921177 -114.100826 130 4481ft 165kts
10-Jan-21 12:50 46.882250 -114.050389 185 4929ft 190kts
10-Jan-21 12:51 46.869588 -114.116264 311 5251ft 198kts
10-Jan-21 12:52 46.912659 -114.171899 322 5280ft 186kts
10-Jan-21 12:53 46.952067 -114.163825 95 4440ft 170kts
10-Jan-21 12:54 46.928993 -114.113689 130 3492ft 135kts
10-Jan-21 12:55 46.910513 -114.082058 130 3207ft 50kts
10-Jan-21 12:56 46.909824 -114.078022 31 3207ft 7kts
10-Jan-21 12:57 46.912643 -114.081999 310 3207ft 15kts
10-Jan-21 12:58 46.915658 -114.081776 340 3207ft 13kts
10-Jan-21 12:59 46.918515 -114.086440 316 3207ft 10kts
10-Jan-21 13:00 46.918847 -114.085220 117 3207ft 0kts
10-Jan-21 13:01 46.918847 -114.085220 117 3207ft 0kts
10-Jan-21 13:02 46.918847 -114.085220 117 3207ft 0kts

Navigation Log

Ident Type
Flight plan parsing failed, navigation log unavailable